sensor_id;sensor_type;location;lat;lon;timestamp;temperature;humidity
46590;DHT22;32313;48.722;9.362;2024-03-23T00:52:16;4.40;99.90
46590;DHT22;32313;48.722;9.362;2024-03-23T00:54:42;4.40;99.90
46590;DHT22;32313;48.722;9.362;2024-03-23T00:57:07;4.40;99.90
46590;DHT22;32313;48.722;9.362;2024-03-23T00:59:33;4.40;99.90
46590;DHT22;32313;48.722;9.362;2024-03-23T01:01:59;4.50;99.90
46590;DHT22;32313;48.722;9.362;2024-03-23T01:04:24;4.40;99.90
46590;DHT22;32313;48.722;9.362;2024-03-23T01:06:50;4.40;99.90
46590;DHT22;32313;48.722;9.362;2024-03-23T01:09:16;4.40;99.90
46590;DHT22;32313;48.722;9.362;2024-03-23T01:11:41;4.30;99.90
46590;DHT22;32313;48.722;9.362;2024-03-23T01:14:07;4.20;99.90
46590;DHT22;32313;48.722;9.362;2024-03-23T01:16:33;4.20;99.90
46590;DHT22;32313;48.722;9.362;2024-03-23T01:18:58;4.10;99.90
46590;DHT22;32313;48.722;9.362;2024-03-23T01:21:24;4.10;99.90
46590;DHT22;32313;48.722;9.362;2024-03-23T01:23:50;4.10;99.90
46590;DHT22;32313;48.722;9.362;2024-03-23T01:26:16;4.20;99.90
46590;DHT22;32313;48.722;9.362;2024-03-23T01:28:47;4.30;99.90
46590;DHT22;32313;48.722;9.362;2024-03-23T01:31:13;4.30;99.90
46590;DHT22;32313;48.722;9.362;2024-03-23T01:33:39;4.40;99.90
46590;DHT22;32313;48.722;9.362;2024-03-23T01:36:04;4.40;99.90
46590;DHT22;32313;48.722;9.362;2024-03-23T01:38:31;4.40;99.90
46590;DHT22;32313;48.722;9.362;2024-03-23T01:40:58;4.40;99.90
46590;DHT22;32313;48.722;9.362;2024-03-23T01:43:23;4.30;99.90
46590;DHT22;32313;48.722;9.362;2024-03-23T01:45:50;4.40;99.90
46590;DHT22;32313;48.722;9.362;2024-03-23T01:48:15;4.40;99.90
46590;DHT22;32313;48.722;9.362;2024-03-23T01:50:41;4.40;99.90
46590;DHT22;32313;48.722;9.362;2024-03-23T01:53:07;4.40;99.90
46590;DHT22;32313;48.722;9.362;2024-03-23T01:55:33;4.40;99.90
46590;DHT22;32313;48.722;9.362;2024-03-23T01:57:59;4.50;99.90
46590;DHT22;32313;48.722;9.362;2024-03-23T02:00:25;4.60;99.90
46590;DHT22;32313;48.722;9.362;2024-03-23T02:02:53;4.60;99.90
46590;DHT22;32313;48.722;9.362;2024-03-23T02:05:19;4.60;99.90
46590;DHT22;32313;48.722;9.362;2024-03-23T02:07:45;4.60;99.90
46590;DHT22;32313;48.722;9.362;2024-03-23T02:10:11;4.60;99.90
46590;DHT22;32313;48.722;9.362;2024-03-23T02:12:39;4.50;99.90
46590;DHT22;32313;48.722;9.362;2024-03-23T02:15:05;4.50;99.90
46590;DHT22;32313;48.722;9.362;2024-03-23T02:17:33;4.50;99.90
46590;DHT22;32313;48.722;9.362;2024-03-23T02:19:59;4.50;99.90
46590;DHT22;32313;48.722;9.362;2024-03-23T02:22:35;4.50;99.90
46590;DHT22;32313;48.722;9.362;2024-03-23T02:25:01;4.50;99.90
46590;DHT22;32313;48.722;9.362;2024-03-23T02:27:28;4.50;99.90
46590;DHT22;32313;48.722;9.362;2024-03-23T02:29:53;4.50;99.90
46590;DHT22;32313;48.722;9.362;2024-03-23T02:32:19;4.50;99.90
46590;DHT22;32313;48.722;9.362;2024-03-23T02:34:45;4.50;99.90
46590;DHT22;32313;48.722;9.362;2024-03-23T02:37:13;4.50;99.90
46590;DHT22;32313;48.722;9.362;2024-03-23T02:39:38;4.60;99.90
46590;DHT22;32313;48.722;9.362;2024-03-23T02:42:04;4.60;99.90
46590;DHT22;32313;48.722;9.362;2024-03-23T02:44:30;4.60;99.90
46590;DHT22;32313;48.722;9.362;2024-03-23T02:47:01;4.50;99.90
46590;DHT22;32313;48.722;9.362;2024-03-23T02:49:27;4.50;99.90
46590;DHT22;32313;48.722;9.362;2024-03-23T02:51:53;4.50;99.90
46590;DHT22;32313;48.722;9.362;2024-03-23T02:54:19;4.50;99.90
46590;DHT22;32313;48.722;9.362;2024-03-23T02:56:44;4.50;99.90
46590;DHT22;32313;48.722;9.362;2024-03-23T02:59:10;4.40;99.90
46590;DHT22;32313;48.722;9.362;2024-03-23T03:01:36;4.40;99.90
46590;DHT22;32313;48.722;9.362;2024-03-23T03:04:02;4.30;99.90
46590;DHT22;32313;48.722;9.362;2024-03-23T03:06:27;4.20;99.90
46590;DHT22;32313;48.722;9.362;2024-03-23T03:08:54;4.20;99.90
46590;DHT22;32313;48.722;9.362;2024-03-23T03:11:19;4.20;99.90
46590;DHT22;32313;48.722;9.362;2024-03-23T03:13:45;4.20;99.90
46590;DHT22;32313;48.722;9.362;2024-03-23T03:16:11;4.20;99.90
46590;DHT22;32313;48.722;9.362;2024-03-23T03:18:37;4.10;99.90
46590;DHT22;32313;48.722;9.362;2024-03-23T03:21:04;4.10;99.90
46590;DHT22;32313;48.722;9.362;2024-03-23T03:23:31;4.00;99.90
46590;DHT22;32313;48.722;9.362;2024-03-23T03:26:02;4.00;99.90
46590;DHT22;32313;48.722;9.362;2024-03-23T03:28:28;4.00;99.90
46590;DHT22;32313;48.722;9.362;2024-03-23T03:30:56;4.10;99.90
46590;DHT22;32313;48.722;9.362;2024-03-23T03:33:22;4.10;99.90
46590;DHT22;32313;48.722;9.362;2024-03-23T03:35:48;4.20;99.90
46590;DHT22;32313;48.722;9.362;2024-03-23T03:38:14;4.20;99.90
46590;DHT22;32313;48.722;9.362;2024-03-23T03:40:41;4.10;99.90
46590;DHT22;32313;48.722;9.362;2024-03-23T03:43:07;4.00;99.90
46590;DHT22;32313;48.722;9.362;2024-03-23T03:45:32;3.90;99.90
46590;DHT22;32313;48.722;9.362;2024-03-23T03:47:58;3.80;99.90
46590;DHT22;32313;48.722;9.362;2024-03-23T03:50:24;3.70;99.90
46590;DHT22;32313;48.722;9.362;2024-03-23T03:52:50;3.60;99.90
46590;DHT22;32313;48.722;9.362;2024-03-23T03:55:16;3.50;99.90
46590;DHT22;32313;48.722;9.362;2024-03-23T03:57:42;3.50;99.90
46590;DHT22;32313;48.722;9.362;2024-03-23T04:00:08;3.50;99.90
46590;DHT22;32313;48.722;9.362;2024-03-23T04:02:40;3.40;99.90
46590;DHT22;32313;48.722;9.362;2024-03-23T04:05:06;3.40;99.90
46590;DHT22;32313;48.722;9.362;2024-03-23T04:07:33;3.40;99.90
46590;DHT22;32313;48.722;9.362;2024-03-23T04:09:59;3.40;99.90
46590;DHT22;32313;48.722;9.362;2024-03-23T04:12:25;3.40;99.90
46590;DHT22;32313;48.722;9.362;2024-03-23T04:14:51;3.40;99.90
46590;DHT22;32313;48.722;9.362;2024-03-23T04:17:16;3.60;99.90
46590;DHT22;32313;48.722;9.362;2024-03-23T04:19:43;3.60;99.90
46590;DHT22;32313;48.722;9.362;2024-03-23T04:22:09;3.60;99.90
46590;DHT22;32313;48.722;9.362;2024-03-23T04:24:35;3.60;99.90
46590;DHT22;32313;48.722;9.362;2024-03-23T04:27:01;3.60;99.90
46590;DHT22;32313;48.722;9.362;2024-03-23T04:29:26;3.70;99.90
46590;DHT22;32313;48.722;9.362;2024-03-23T04:31:52;3.70;99.90
46590;DHT22;32313;48.722;9.362;2024-03-23T04:34:18;3.80;99.90
46590;DHT22;32313;48.722;9.362;2024-03-23T04:36:44;3.90;99.90
46590;DHT22;32313;48.722;9.362;2024-03-23T04:39:09;3.90;99.90
46590;DHT22;32313;48.722;9.362;2024-03-23T04:41:35;4.00;99.90
46590;DHT22;32313;48.722;9.362;2024-03-23T04:44:01;4.00;99.90
46590;DHT22;32313;48.722;9.362;2024-03-23T04:46:27;3.90;99.90
46590;DHT22;32313;48.722;9.362;2024-03-23T04:48:52;3.90;99.90
46590;DHT22;32313;48.722;9.362;2024-03-23T04:51:25;3.90;99.90
46590;DHT22;32313;48.722;9.362;2024-03-23T04:53:52;4.00;99.90
46590;DHT22;32313;48.722;9.362;2024-03-23T04:56:18;4.10;99.90
46590;DHT22;32313;48.722;9.362;2024-03-23T04:58:44;4.10;99.90
46590;DHT22;32313;48.722;9.362;2024-03-23T05:01:10;4.30;99.90
46590;DHT22;32313;48.722;9.362;2024-03-23T05:03:37;4.60;99.90
46590;DHT22;32313;48.722;9.362;2024-03-23T05:06:03;4.80;99.90
46590;DHT22;32313;48.722;9.362;2024-03-23T05:08:28;5.10;99.90
46590;DHT22;32313;48.722;9.362;2024-03-23T05:10:54;5.30;99.90
46590;DHT22;32313;48.722;9.362;2024-03-23T05:13:20;5.80;99.90
46590;DHT22;32313;48.722;9.362;2024-03-23T05:15:52;6.20;99.90
46590;DHT22;32313;48.722;9.362;2024-03-23T05:18:18;6.60;99.90
46590;DHT22;32313;48.722;9.362;2024-03-23T05:20:57;6.90;99.90
46590;DHT22;32313;48.722;9.362;2024-03-23T05:23:27;7.10;99.90
46590;DHT22;32313;48.722;9.362;2024-03-23T05:25:53;7.40;99.90
46590;DHT22;32313;48.722;9.362;2024-03-23T05:28:19;7.70;99.90
46590;DHT22;32313;48.722;9.362;2024-03-23T05:30:50;8.00;99.90
46590;DHT22;32313;48.722;9.362;2024-03-23T05:33:18;8.20;99.90
46590;DHT22;32313;48.722;9.362;2024-03-23T05:36:01;8.30;99.90
46590;DHT22;32313;48.722;9.362;2024-03-23T05:38:27;8.40;99.90
46590;DHT22;32313;48.722;9.362;2024-03-23T05:41:00;8.40;99.90
46590;DHT22;32313;48.722;9.362;2024-03-23T05:43:26;8.40;99.90
46590;DHT22;32313;48.722;9.362;2024-03-23T05:45:59;8.40;99.90
46590;DHT22;32313;48.722;9.362;2024-03-23T05:48:26;8.50;99.90
46590;DHT22;32313;48.722;9.362;2024-03-23T05:50:53;8.50;99.90
46590;DHT22;32313;48.722;9.362;2024-03-23T05:53:19;8.60;99.90
46590;DHT22;32313;48.722;9.362;2024-03-23T05:55:48;8.60;99.90
46590;DHT22;32313;48.722;9.362;2024-03-23T05:58:17;8.70;99.90
46590;DHT22;32313;48.722;9.362;2024-03-23T06:00:44;8.80;99.90
46590;DHT22;32313;48.722;9.362;2024-03-23T06:03:10;8.80;99.90
46590;DHT22;32313;48.722;9.362;2024-03-23T06:05:37;8.80;99.90
46590;DHT22;32313;48.722;9.362;2024-03-23T06:08:03;8.80;99.90
46590;DHT22;32313;48.722;9.362;2024-03-23T06:10:29;8.80;99.90
46590;DHT22;32313;48.722;9.362;2024-03-23T06:12:55;8.80;99.90
46590;DHT22;32313;48.722;9.362;2024-03-23T06:15:27;8.70;99.90
46590;DHT22;32313;48.722;9.362;2024-03-23T06:17:52;8.70;99.90
46590;DHT22;32313;48.722;9.362;2024-03-23T06:20:18;8.70;99.90
46590;DHT22;32313;48.722;9.362;2024-03-23T06:22:44;8.70;99.90
46590;DHT22;32313;48.722;9.362;2024-03-23T06:25:09;8.70;99.90
46590;DHT22;32313;48.722;9.362;2024-03-23T06:27:37;8.70;99.90
46590;DHT22;32313;48.722;9.362;2024-03-23T06:30:03;8.60;99.90
46590;DHT22;32313;48.722;9.362;2024-03-23T06:32:29;8.60;99.90
46590;DHT22;32313;48.722;9.362;2024-03-23T06:34:55;8.50;99.90
46590;DHT22;32313;48.722;9.362;2024-03-23T06:37:20;8.50;99.90
46590;DHT22;32313;48.722;9.362;2024-03-23T06:39:46;8.50;99.90
46590;DHT22;32313;48.722;9.362;2024-03-23T06:42:12;8.40;99.90
46590;DHT22;32313;48.722;9.362;2024-03-23T06:44:38;8.40;99.90
46590;DHT22;32313;48.722;9.362;2024-03-23T06:47:05;8.40;99.90
46590;DHT22;32313;48.722;9.362;2024-03-23T06:49:31;8.40;99.90
46590;DHT22;32313;48.722;9.362;2024-03-23T06:51:56;8.30;99.90
46590;DHT22;32313;48.722;9.362;2024-03-23T06:54:22;8.30;99.90
46590;DHT22;32313;48.722;9.362;2024-03-23T06:56:47;8.30;99.90
46590;DHT22;32313;48.722;9.362;2024-03-23T06:59:13;8.30;99.90
46590;DHT22;32313;48.722;9.362;2024-03-23T07:01:39;8.30;99.90
46590;DHT22;32313;48.722;9.362;2024-03-23T07:04:05;8.30;99.90
46590;DHT22;32313;48.722;9.362;2024-03-23T07:06:31;8.20;99.90
46590;DHT22;32313;48.722;9.362;2024-03-23T07:08:56;8.20;99.90
46590;DHT22;32313;48.722;9.362;2024-03-23T07:11:23;8.20;99.90
46590;DHT22;32313;48.722;9.362;2024-03-23T07:13:53;8.20;99.90
46590;DHT22;32313;48.722;9.362;2024-03-23T07:16:22;8.20;99.90
46590;DHT22;32313;48.722;9.362;2024-03-23T07:18:49;8.30;99.90
46590;DHT22;32313;48.722;9.362;2024-03-23T07:21:15;8.30;99.90
46590;DHT22;32313;48.722;9.362;2024-03-23T07:23:44;8.40;99.90
46590;DHT22;32313;48.722;9.362;2024-03-23T07:26:10;8.50;99.90
46590;DHT22;32313;48.722;9.362;2024-03-23T07:28:36;8.50;99.90
46590;DHT22;32313;48.722;9.362;2024-03-23T07:31:06;8.50;99.90
46590;DHT22;32313;48.722;9.362;2024-03-23T07:33:33;8.60;99.90
46590;DHT22;32313;48.722;9.362;2024-03-23T07:35:59;8.60;99.90
46590;DHT22;32313;48.722;9.362;2024-03-23T07:38:27;8.70;99.90
46590;DHT22;32313;48.722;9.362;2024-03-23T07:41:02;8.70;99.90
46590;DHT22;32313;48.722;9.362;2024-03-23T07:43:28;8.80;99.90
46590;DHT22;32313;48.722;9.362;2024-03-23T07:45:54;8.80;99.90
46590;DHT22;32313;48.722;9.362;2024-03-23T07:48:21;9.00;99.90
46590;DHT22;32313;48.722;9.362;2024-03-23T07:50:59;9.10;99.90
46590;DHT22;32313;48.722;9.362;2024-03-23T07:53:25;9.20;99.90
46590;DHT22;32313;48.722;9.362;2024-03-23T07:55:55;9.20;99.90
46590;DHT22;32313;48.722;9.362;2024-03-23T07:58:21;9.30;99.90
46590;DHT22;32313;48.722;9.362;2024-03-23T08:00:47;9.70;99.90
46590;DHT22;32313;48.722;9.362;2024-03-23T08:03:13;10.10;99.90
46590;DHT22;32313;48.722;9.362;2024-03-23T08:05:38;10.10;99.90
46590;DHT22;32313;48.722;9.362;2024-03-23T08:08:04;9.80;99.90
46590;DHT22;32313;48.722;9.362;2024-03-23T08:10:30;9.60;99.90
46590;DHT22;32313;48.722;9.362;2024-03-23T08:12:56;9.20;99.90
46590;DHT22;32313;48.722;9.362;2024-03-23T08:15:21;8.90;99.90
46590;DHT22;32313;48.722;9.362;2024-03-23T08:17:47;8.60;99.90
46590;DHT22;32313;48.722;9.362;2024-03-23T08:20:13;8.50;99.90
46590;DHT22;32313;48.722;9.362;2024-03-23T08:22:38;8.30;99.90
46590;DHT22;32313;48.722;9.362;2024-03-23T08:25:04;8.10;99.90
46590;DHT22;32313;48.722;9.362;2024-03-23T08:27:30;7.90;99.90
46590;DHT22;32313;48.722;9.362;2024-03-23T08:29:56;7.90;99.90
46590;DHT22;32313;48.722;9.362;2024-03-23T08:32:21;8.00;99.90
46590;DHT22;32313;48.722;9.362;2024-03-23T08:34:47;8.10;99.90
46590;DHT22;32313;48.722;9.362;2024-03-23T08:37:13;8.20;99.90
46590;DHT22;32313;48.722;9.362;2024-03-23T08:39:38;8.30;99.90
46590;DHT22;32313;48.722;9.362;2024-03-23T08:42:04;8.40;99.90
46590;DHT22;32313;48.722;9.362;2024-03-23T08:44:30;8.50;99.90
46590;DHT22;32313;48.722;9.362;2024-03-23T08:46:56;8.70;99.90
46590;DHT22;32313;48.722;9.362;2024-03-23T08:49:22;9.00;99.90
46590;DHT22;32313;48.722;9.362;2024-03-23T08:51:47;9.10;99.90
46590;DHT22;32313;48.722;9.362;2024-03-23T08:54:13;9.50;99.90
46590;DHT22;32313;48.722;9.362;2024-03-23T08:56:39;10.40;99.90
46590;DHT22;32313;48.722;9.362;2024-03-23T08:59:04;10.80;99.90
46590;DHT22;32313;48.722;9.362;2024-03-23T09:01:30;10.50;99.90
46590;DHT22;32313;48.722;9.362;2024-03-23T09:03:56;10.10;99.90
46590;DHT22;32313;48.722;9.362;2024-03-23T09:06:21;9.70;99.90
46590;DHT22;32313;48.722;9.362;2024-03-23T09:08:47;9.30;99.90
46590;DHT22;32313;48.722;9.362;2024-03-23T09:11:13;9.20;99.90
46590;DHT22;32313;48.722;9.362;2024-03-23T09:13:39;9.40;99.90
46590;DHT22;32313;48.722;9.362;2024-03-23T09:16:07;9.50;99.90
46590;DHT22;32313;48.722;9.362;2024-03-23T09:18:36;9.30;99.90
46590;DHT22;32313;48.722;9.362;2024-03-23T09:21:11;8.90;99.90
46590;DHT22;32313;48.722;9.362;2024-03-23T09:23:38;8.70;99.90
46590;DHT22;32313;48.722;9.362;2024-03-23T09:26:04;8.60;99.90
46590;DHT22;32313;48.722;9.362;2024-03-23T09:28:32;8.60;99.90
46590;DHT22;32313;48.722;9.362;2024-03-23T09:31:05;8.50;99.90
46590;DHT22;32313;48.722;9.362;2024-03-23T09:33:31;8.70;99.90
46590;DHT22;32313;48.722;9.362;2024-03-23T09:35:57;9.00;99.90
46590;DHT22;32313;48.722;9.362;2024-03-23T09:38:23;9.10;99.90
46590;DHT22;32313;48.722;9.362;2024-03-23T09:40:53;9.20;99.90
46590;DHT22;32313;48.722;9.362;2024-03-23T09:43:19;9.40;99.90
46590;DHT22;32313;48.722;9.362;2024-03-23T09:45:46;9.90;99.90
46590;DHT22;32313;48.722;9.362;2024-03-23T09:48:12;10.30;99.90
46590;DHT22;32313;48.722;9.362;2024-03-23T09:50:43;11.20;99.90
46590;DHT22;32313;48.722;9.362;2024-03-23T09:53:10;12.10;99.90
46590;DHT22;32313;48.722;9.362;2024-03-23T09:55:41;12.40;99.90
46590;DHT22;32313;48.722;9.362;2024-03-23T09:58:08;12.20;99.90
46590;DHT22;32313;48.722;9.362;2024-03-23T10:00:37;12.10;99.90
46590;DHT22;32313;48.722;9.362;2024-03-23T10:03:04;11.90;99.90
46590;DHT22;32313;48.722;9.362;2024-03-23T10:05:32;11.80;99.90
46590;DHT22;32313;48.722;9.362;2024-03-23T10:10:42;11.20;99.90
46590;DHT22;32313;48.722;9.362;2024-03-23T10:13:08;10.80;99.90
46590;DHT22;32313;48.722;9.362;2024-03-23T10:15:35;10.60;99.90
46590;DHT22;32313;48.722;9.362;2024-03-23T10:18:20;10.30;99.90
46590;DHT22;32313;48.722;9.362;2024-03-23T10:23:33;10.00;99.90
46590;DHT22;32313;48.722;9.362;2024-03-23T10:28:56;10.50;99.90
46590;DHT22;32313;48.722;9.362;2024-03-23T10:31:27;10.80;99.90
46590;DHT22;32313;48.722;9.362;2024-03-23T10:33:54;10.60;99.90
46590;DHT22;32313;48.722;9.362;2024-03-23T10:36:24;10.40;99.90
46590;DHT22;32313;48.722;9.362;2024-03-23T10:38:51;10.30;99.90
46590;DHT22;32313;48.722;9.362;2024-03-23T10:41:18;10.40;99.90
46590;DHT22;32313;48.722;9.362;2024-03-23T10:43:48;10.50;99.90
46590;DHT22;32313;48.722;9.362;2024-03-23T10:46:15;10.40;99.90
46590;DHT22;32313;48.722;9.362;2024-03-23T10:48:40;10.20;99.90
46590;DHT22;32313;48.722;9.362;2024-03-23T10:51:08;10.50;99.90
46590;DHT22;32313;48.722;9.362;2024-03-23T10:53:34;10.40;99.90
46590;DHT22;32313;48.722;9.362;2024-03-23T10:56:02;10.10;99.90
46590;DHT22;32313;48.722;9.362;2024-03-23T10:58:36;9.90;99.90
46590;DHT22;32313;48.722;9.362;2024-03-23T11:01:03;9.80;99.90
46590;DHT22;32313;48.722;9.362;2024-03-23T11:03:36;9.80;99.90
46590;DHT22;32313;48.722;9.362;2024-03-23T11:06:06;9.90;99.90
46590;DHT22;32313;48.722;9.362;2024-03-23T11:08:38;9.80;99.90
46590;DHT22;32313;48.722;9.362;2024-03-23T11:11:20;9.60;99.90
46590;DHT22;32313;48.722;9.362;2024-03-23T11:13:53;9.10;99.90
46590;DHT22;32313;48.722;9.362;2024-03-23T11:18:49;8.00;99.90
46590;DHT22;32313;48.722;9.362;2024-03-23T11:24:19;6.70;99.90
46590;DHT22;32313;48.722;9.362;2024-03-23T11:26:46;6.30;99.90
46590;DHT22;32313;48.722;9.362;2024-03-23T11:29:13;6.00;99.90
46590;DHT22;32313;48.722;9.362;2024-03-23T11:31:46;5.90;99.90
46590;DHT22;32313;48.722;9.362;2024-03-23T11:34:12;6.10;99.90
46590;DHT22;32313;48.722;9.362;2024-03-23T11:36:38;6.40;99.90
46590;DHT22;32313;48.722;9.362;2024-03-23T11:41:53;7.00;99.90
46590;DHT22;32313;48.722;9.362;2024-03-23T11:44:20;7.10;99.90
46590;DHT22;32313;48.722;9.362;2024-03-23T11:46:48;7.10;99.90
46590;DHT22;32313;48.722;9.362;2024-03-23T11:49:29;7.10;99.90
46590;DHT22;32313;48.722;9.362;2024-03-23T11:51:56;7.20;99.90
46590;DHT22;32313;48.722;9.362;2024-03-23T11:54:23;7.30;99.90
46590;DHT22;32313;48.722;9.362;2024-03-23T11:57:06;7.40;99.90
46590;DHT22;32313;48.722;9.362;2024-03-23T11:59:40;7.50;99.90
46590;DHT22;32313;48.722;9.362;2024-03-23T12:02:13;7.70;99.90
46590;DHT22;32313;48.722;9.362;2024-03-23T12:04:41;7.80;99.90
46590;DHT22;32313;48.722;9.362;2024-03-23T12:07:18;7.80;99.90
46590;DHT22;32313;48.722;9.362;2024-03-23T12:09:45;7.90;99.90
46590;DHT22;32313;48.722;9.362;2024-03-23T12:12:16;8.00;99.90
46590;DHT22;32313;48.722;9.362;2024-03-23T12:15:01;8.10;99.90
46590;DHT22;32313;48.722;9.362;2024-03-23T12:17:28;8.20;99.90
46590;DHT22;32313;48.722;9.362;2024-03-23T12:19:54;8.40;99.90
46590;DHT22;32313;48.722;9.362;2024-03-23T12:22:23;8.60;99.90
46590;DHT22;32313;48.722;9.362;2024-03-23T12:24:49;8.90;99.90
46590;DHT22;32313;48.722;9.362;2024-03-23T12:27:15;9.20;99.90
46590;DHT22;32313;48.722;9.362;2024-03-23T12:29:42;9.30;99.90
46590;DHT22;32313;48.722;9.362;2024-03-23T12:32:13;9.20;99.90
46590;DHT22;32313;48.722;9.362;2024-03-23T12:34:39;9.10;99.90
46590;DHT22;32313;48.722;9.362;2024-03-23T12:37:05;8.90;99.90
46590;DHT22;32313;48.722;9.362;2024-03-23T12:39:32;8.80;99.90
46590;DHT22;32313;48.722;9.362;2024-03-23T12:41:57;8.60;99.90
46590;DHT22;32313;48.722;9.362;2024-03-23T12:44:23;8.40;99.90
46590;DHT22;32313;48.722;9.362;2024-03-23T12:46:49;8.40;99.90
46590;DHT22;32313;48.722;9.362;2024-03-23T12:49:15;8.40;99.90
46590;DHT22;32313;48.722;9.362;2024-03-23T12:51:53;8.40;99.90
46590;DHT22;32313;48.722;9.362;2024-03-23T12:54:20;8.40;99.90
46590;DHT22;32313;48.722;9.362;2024-03-23T12:56:46;8.50;99.90
46590;DHT22;32313;48.722;9.362;2024-03-23T12:59:12;8.70;99.90
46590;DHT22;32313;48.722;9.362;2024-03-23T13:01:39;9.10;99.90
46590;DHT22;32313;48.722;9.362;2024-03-23T13:04:04;9.20;99.90
46590;DHT22;32313;48.722;9.362;2024-03-23T13:06:30;9.00;99.90
46590;DHT22;32313;48.722;9.362;2024-03-23T13:09:01;8.80;99.90
46590;DHT22;32313;48.722;9.362;2024-03-23T13:11:27;8.70;99.90
46590;DHT22;32313;48.722;9.362;2024-03-23T13:13:54;8.70;99.90
46590;DHT22;32313;48.722;9.362;2024-03-23T13:16:20;8.80;99.90
46590;DHT22;32313;48.722;9.362;2024-03-23T13:18:45;8.80;99.90
46590;DHT22;32313;48.722;9.362;2024-03-23T13:21:11;8.80;99.90
46590;DHT22;32313;48.722;9.362;2024-03-23T13:23:37;8.90;99.90
46590;DHT22;32313;48.722;9.362;2024-03-23T13:26:05;8.90;99.90
46590;DHT22;32313;48.722;9.362;2024-03-23T13:28:31;8.80;99.90
46590;DHT22;32313;48.722;9.362;2024-03-23T13:30:57;8.50;99.90
46590;DHT22;32313;48.722;9.362;2024-03-23T13:33:30;8.50;99.90
46590;DHT22;32313;48.722;9.362;2024-03-23T13:35:58;8.60;99.90
46590;DHT22;32313;48.722;9.362;2024-03-23T13:38:24;8.70;99.90
46590;DHT22;32313;48.722;9.362;2024-03-23T13:43:19;8.60;99.90
46590;DHT22;32313;48.722;9.362;2024-03-23T13:45:49;8.90;99.90
46590;DHT22;32313;48.722;9.362;2024-03-23T13:48:22;9.40;99.90
46590;DHT22;32313;48.722;9.362;2024-03-23T13:51:05;10.40;99.90
46590;DHT22;32313;48.722;9.362;2024-03-23T13:53:31;11.10;99.90
46590;DHT22;32313;48.722;9.362;2024-03-23T13:56:00;11.50;99.90
46590;DHT22;32313;48.722;9.362;2024-03-23T13:58:26;12.20;99.90
46590;DHT22;32313;48.722;9.362;2024-03-23T14:00:53;12.80;99.90
46590;DHT22;32313;48.722;9.362;2024-03-23T14:03:18;13.20;99.90
46590;DHT22;32313;48.722;9.362;2024-03-23T14:05:45;13.50;99.90
46590;DHT22;32313;48.722;9.362;2024-03-23T14:08:12;13.40;99.90
46590;DHT22;32313;48.722;9.362;2024-03-23T14:10:42;13.60;99.70
46590;DHT22;32313;48.722;9.362;2024-03-23T14:13:08;13.80;99.90
46590;DHT22;32313;48.722;9.362;2024-03-23T14:15:34;13.80;97.30
46590;DHT22;32313;48.722;9.362;2024-03-23T14:17:59;13.60;97.70
46590;DHT22;32313;48.722;9.362;2024-03-23T14:20:25;12.70;98.90
46590;DHT22;32313;48.722;9.362;2024-03-23T14:22:52;12.00;99.10
46590;DHT22;32313;48.722;9.362;2024-03-23T14:25:18;11.40;99.90
46590;DHT22;32313;48.722;9.362;2024-03-23T14:27:45;11.00;99.90
46590;DHT22;32313;48.722;9.362;2024-03-23T14:30:11;10.60;99.90
46590;DHT22;32313;48.722;9.362;2024-03-23T14:32:38;10.10;99.90
46590;DHT22;32313;48.722;9.362;2024-03-23T14:35:04;10.10;99.90
46590;DHT22;32313;48.722;9.362;2024-03-23T14:37:30;10.50;99.90
46590;DHT22;32313;48.722;9.362;2024-03-23T14:39:56;11.40;99.90
46590;DHT22;32313;48.722;9.362;2024-03-23T14:42:23;11.70;99.90
46590;DHT22;32313;48.722;9.362;2024-03-23T14:44:52;11.40;99.90
46590;DHT22;32313;48.722;9.362;2024-03-23T14:47:18;11.70;99.90
46590;DHT22;32313;48.722;9.362;2024-03-23T14:49:45;12.40;99.90
46590;DHT22;32313;48.722;9.362;2024-03-23T14:52:19;13.00;99.90
46590;DHT22;32313;48.722;9.362;2024-03-23T14:54:46;13.00;99.90
46590;DHT22;32313;48.722;9.362;2024-03-23T14:57:12;13.00;99.90
46590;DHT22;32313;48.722;9.362;2024-03-23T14:59:38;13.00;99.90
46590;DHT22;32313;48.722;9.362;2024-03-23T15:02:07;12.90;99.90
46590;DHT22;32313;48.722;9.362;2024-03-23T15:04:33;12.40;99.90
46590;DHT22;32313;48.722;9.362;2024-03-23T15:06:59;12.00;99.90
46590;DHT22;32313;48.722;9.362;2024-03-23T15:09:25;11.90;99.90
46590;DHT22;32313;48.722;9.362;2024-03-23T15:11:51;11.00;99.90
46590;DHT22;32313;48.722;9.362;2024-03-23T15:14:17;10.30;99.90
46590;DHT22;32313;48.722;9.362;2024-03-23T15:16:42;9.80;99.90
46590;DHT22;32313;48.722;9.362;2024-03-23T15:19:08;9.60;99.90
46590;DHT22;32313;48.722;9.362;2024-03-23T15:21:34;9.40;99.90
46590;DHT22;32313;48.722;9.362;2024-03-23T15:24:00;9.50;99.90
46590;DHT22;32313;48.722;9.362;2024-03-23T15:26:26;9.50;99.90
46590;DHT22;32313;48.722;9.362;2024-03-23T15:28:52;9.80;99.90
46590;DHT22;32313;48.722;9.362;2024-03-23T15:31:24;10.40;99.90
46590;DHT22;32313;48.722;9.362;2024-03-23T15:33:50;10.60;99.90
46590;DHT22;32313;48.722;9.362;2024-03-23T15:36:16;11.10;99.90
46590;DHT22;32313;48.722;9.362;2024-03-23T15:38:42;11.20;99.90
46590;DHT22;32313;48.722;9.362;2024-03-23T15:41:08;11.20;99.90
46590;DHT22;32313;48.722;9.362;2024-03-23T15:43:34;11.30;99.90
46590;DHT22;32313;48.722;9.362;2024-03-23T15:46:02;11.50;99.90
46590;DHT22;32313;48.722;9.362;2024-03-23T15:48:28;11.50;99.90
46590;DHT22;32313;48.722;9.362;2024-03-23T15:50:56;11.20;99.90
46590;DHT22;32313;48.722;9.362;2024-03-23T15:53:23;11.00;99.90
46590;DHT22;32313;48.722;9.362;2024-03-23T15:56:00;10.90;99.90
46590;DHT22;32313;48.722;9.362;2024-03-23T15:58:27;10.10;99.90
46590;DHT22;32313;48.722;9.362;2024-03-23T16:00:59;9.60;99.90
46590;DHT22;32313;48.722;9.362;2024-03-23T16:03:26;9.10;99.90
46590;DHT22;32313;48.722;9.362;2024-03-23T16:05:58;8.90;99.90
46590;DHT22;32313;48.722;9.362;2024-03-23T16:08:24;8.70;99.90
46590;DHT22;32313;48.722;9.362;2024-03-23T16:10:51;8.50;99.90
46590;DHT22;32313;48.722;9.362;2024-03-23T16:13:17;8.40;99.90
46590;DHT22;32313;48.722;9.362;2024-03-23T16:15:44;8.20;99.90
46590;DHT22;32313;48.722;9.362;2024-03-23T16:18:10;8.10;99.90
46590;DHT22;32313;48.722;9.362;2024-03-23T16:20:36;8.00;99.90
46590;DHT22;32313;48.722;9.362;2024-03-23T16:23:03;8.00;99.90
46590;DHT22;32313;48.722;9.362;2024-03-23T16:25:29;8.20;99.90
46590;DHT22;32313;48.722;9.362;2024-03-23T16:27:56;8.30;99.90
46590;DHT22;32313;48.722;9.362;2024-03-23T16:30:22;8.20;99.90
46590;DHT22;32313;48.722;9.362;2024-03-23T16:32:48;8.00;99.90
46590;DHT22;32313;48.722;9.362;2024-03-23T16:35:14;7.90;99.90
46590;DHT22;32313;48.722;9.362;2024-03-23T16:37:40;7.70;99.90
46590;DHT22;32313;48.722;9.362;2024-03-23T16:40:07;7.40;99.90
46590;DHT22;32313;48.722;9.362;2024-03-23T16:42:35;7.30;99.90
46590;DHT22;32313;48.722;9.362;2024-03-23T16:45:01;7.20;99.90
46590;DHT22;32313;48.722;9.362;2024-03-23T16:47:27;7.20;99.90
46590;DHT22;32313;48.722;9.362;2024-03-23T16:49:53;7.20;99.90
46590;DHT22;32313;48.722;9.362;2024-03-23T16:52:19;7.20;99.90